Time;durP1;ratioP1;P1;durP2;ratioP2;P2;SDS_P1;SDS_P2;PMS_P1;PMS_P2;Temp;Humidity;BMP_temperature;BMP_pressure;BME280_temperature;BME280_humidity;BME280_pressure;Samples;Min_cycle;Max_cycle;Signal;HPM_P1;HPM_P2
2022/05/26 00:00:52;;;;;;;;;;;;;;;21.25;45.91;101669.66;6131634;23;19917;-77
2022/05/26 00:03:17;;;;;;;;;;;;;;;21.25;46.09;101674.88;6107045;23;19996;-78
2022/05/26 00:05:43;;;;;;;;;;;;;;;21.24;46.11;101671.41;6131777;23;19918;-77
2022/05/26 00:08:08;;;;;;;;;;;;;;;21.24;46.03;101674.03;6155951;23;19915;-77
2022/05/26 00:10:35;;;;;;;;;;;;;;;21.24;46.18;101667.94;6156309;23;19920;-77
2022/05/26 00:13:00;;;;;;;;;;;;;;;21.24;46.12;101674.03;6157705;23;19931;-77
2022/05/26 00:15:26;;;;;;;;;;;;;;;21.23;46.02;101669.69;6157486;23;20336;-77
2022/05/26 00:17:53;;;;;;;;;;;;;;;21.23;46.03;101668.78;6131296;23;20130;-77
2022/05/26 00:20:18;;;;;;;;;;;;;;;21.21;46.05;101674.06;6132037;23;20333;-77
2022/05/26 00:22:44;;;;;;;;;;;;;;;21.22;45.95;101685.41;6131281;23;20384;-77
2022/05/26 00:25:09;;;;;;;;;;;;;;;21.22;46.05;101677.53;6130987;23;19944;-77
2022/05/26 00:27:34;;;;;;;;;;;;;;;21.22;46.04;101681.03;6131502;23;19940;-77
2022/05/26 00:30:00;;;;;;;;;;;;;;;21.21;46.04;101679.31;6157563;23;19912;-77
2022/05/26 00:32:25;;;;;;;;;;;;;;;21.21;46.20;101681.91;6157525;23;19931;-77
2022/05/26 00:34:50;;;;;;;;;;;;;;;21.20;46.25;101685.41;6157461;23;19915;-77
2022/05/26 00:37:15;;;;;;;;;;;;;;;21.20;46.28;101682.78;6156082;23;20367;-77
2022/05/26 00:39:41;;;;;;;;;;;;;;;21.21;46.14;101681.91;6106473;23;19959;-77
2022/05/26 00:42:07;;;;;;;;;;;;;;;21.21;46.13;101694.13;6157371;23;19915;-77
2022/05/26 00:44:33;;;;;;;;;;;;;;;21.22;46.06;101693.25;6157013;23;20321;-77
2022/05/26 00:47:18;;;;;;;;;;;;;;;21.20;46.26;101688.03;6131056;23;19909;-76
2022/05/26 00:49:50;;;;;;;;;;;;;;;21.20;46.11;101697.63;6130857;23;20286;-77
2022/05/26 00:52:42;;;;;;;;;;;;;;;21.20;46.29;101693.25;6130852;23;19991;-77
2022/05/26 00:55:15;;;;;;;;;;;;;;;21.21;46.22;101692.41;6153278;23;19970;-77
2022/05/26 00:57:43;;;;;;;;;;;;;;;21.21;46.25;101697.63;6155347;23;19995;-77
2022/05/26 01:00:12;;;;;;;;;;;;;;;21.20;46.11;101701.09;6157366;23;20280;-77
2022/05/26 01:02:57;;;;;;;;;;;;;;;21.20;46.07;101698.50;6130976;23;19909;-77
2022/05/26 01:05:25;;;;;;;;;;;;;;;21.21;46.34;101700.25;6156397;23;19978;-77
2022/05/26 01:07:51;;;;;;;;;;;;;;;21.20;46.17;101697.63;6155345;23;19987;-77
2022/05/26 01:10:17;;;;;;;;;;;;;;;21.20;46.19;101700.25;6156815;23;19999;-77
2022/05/26 01:12:42;;;;;;;;;;;;;;;21.20;46.30;101702.88;6155298;23;20004;-77
2022/05/26 01:15:09;;;;;;;;;;;;;;;21.20;46.21;101701.09;6156914;23;19909;-77
2022/05/26 01:17:35;;;;;;;;;;;;;;;21.20;46.14;101708.97;6156807;23;19995;-77
2022/05/26 01:20:03;;;;;;;;;;;;;;;21.20;46.29;101708.97;6157246;23;19943;-77
2022/05/26 01:22:47;;;;;;;;;;;;;;;21.19;46.41;101719.44;6130665;23;19908;-77
2022/05/26 01:25:18;;;;;;;;;;;;;;;21.19;46.42;101720.34;6156464;23;19916;-77
2022/05/26 01:27:45;;;;;;;;;;;;;;;21.20;46.54;101718.56;6130657;23;19912;-77
2022/05/26 01:30:37;;;;;;;;;;;;;;;21.19;46.27;101722.94;6130552;23;19983;-77
2022/05/26 01:33:06;;;;;;;;;;;;;;;21.18;46.27;101723.81;6155180;23;19908;-77
2022/05/26 01:35:37;;;;;;;;;;;;;;;21.20;46.28;101721.19;6130484;23;19909;-77
2022/05/26 01:38:02;;;;;;;;;;;;;;;21.18;46.38;101731.66;6156698;23;19909;-77
2022/05/26 01:40:46;;;;;;;;;;;;;;;21.19;46.49;101725.56;6156506;23;19916;-77
2022/05/26 01:43:30;;;;;;;;;;;;;;;21.19;46.45;101735.16;6156554;23;20326;-77
2022/05/26 01:46:01;;;;;;;;;;;;;;;21.18;46.46;101731.66;6130515;23;19916;-77
2022/05/26 01:48:29;;;;;;;;;;;;;;;21.19;46.29;101724.69;6156647;23;19963;-77
2022/05/26 01:51:03;;;;;;;;;;;;;;;21.18;46.41;101729.06;6130517;23;19916;-77
2022/05/26 01:53:36;;;;;;;;;;;;;;;21.19;46.60;101741.28;6130648;23;19963;-78
2022/05/26 01:56:22;;;;;;;;;;;;;;;21.19;46.60;101737.75;6130646;23;19913;-77
2022/05/26 01:58:50;;;;;;;;;;;;;;;21.18;46.60;101752.59;6114760;23;20384;-77
2022/05/26 02:01:19;;;;;;;;;;;;;;;21.17;46.56;101746.50;6130536;23;20450;-77
2022/05/26 02:03:47;;;;;;;;;;;;;;;21.19;46.37;101756.97;6156728;23;19916;-77
2022/05/26 02:06:12;;;;;;;;;;;;;;;21.17;46.44;101751.75;6157161;23;19932;-77
2022/05/26 02:08:40;;;;;;;;;;;;;;;21.19;46.52;101748.22;6132309;23;20245;-78
2022/05/26 02:11:16;;;;;;;;;;;;;;;21.15;46.43;101753.50;6130480;23;20284;-77
2022/05/26 02:14:02;;;;;;;;;;;;;;;21.18;46.40;101752.59;6156827;23;20245;-78
2022/05/26 02:16:43;;;;;;;;;;;;;;;21.17;46.64;101756.13;6155271;23;19999;-77
2022/05/26 02:19:12;;;;;;;;;;;;;;;21.17;46.54;101761.34;6158045;23;19980;-78
2022/05/26 02:21:44;;;;;;;;;;;;;;;21.17;46.65;101763.97;6132457;23;20331;-78
2022/05/26 02:24:14;;;;;;;;;;;;;;;21.17;46.52;101770.06;6132367;23;19916;-80
2022/05/26 02:26:40;;;;;;;;;;;;;;;21.16;46.67;101764.84;6158754;23;19936;-79
2022/05/26 02:31:50;;;;;;;;;;;;;;;21.16;46.67;101770.06;6136571;23;19952;-79
2022/05/26 02:34:18;;;;;;;;;;;;;;;21.15;46.69;101771.84;6157144;23;20236;-78
2022/05/26 02:36:45;;;;;;;;;;;;;;;21.17;46.67;101774.44;6132393;23;19955;-78
2022/05/26 02:39:10;;;;;;;;;;;;;;;21.14;46.70;101775.34;6132419;23;19916;-79
2022/05/26 02:41:36;;;;;;;;;;;;;;;21.15;46.57;101773.59;6156801;23;19913;-78
2022/05/26 02:44:03;;;;;;;;;;;;;;;21.15;46.75;101781.44;6107763;23;20241;-79
2022/05/26 02:46:43;;;;;;;;;;;;;;;21.13;46.82;101784.06;6158315;23;19916;-79
2022/05/26 02:49:12;;;;;;;;;;;;;;;21.13;46.82;101785.81;6132280;23;20321;-78
2022/05/26 02:51:40;;;;;;;;;;;;;;;21.14;46.62;101792.78;6132076;23;19920;-78
2022/05/26 02:54:29;;;;;;;;;;;;;;;21.13;46.85;101789.31;6132741;23;20379;-78
2022/05/26 02:56:54;;;;;;;;;;;;;;;21.12;46.83;101792.81;6158315;23;19912;-78
2022/05/26 02:59:30;;;;;;;;;;;;;;;21.12;46.60;101795.44;6132171;23;20348;-78
2022/05/26 03:02:18;;;;;;;;;;;;;;;21.12;46.61;101787.59;6158341;23;20373;-78
2022/05/26 03:04:46;;;;;;;;;;;;;;;21.11;46.81;101793.69;6090982;23;19916;-79
2022/05/26 03:07:16;;;;;;;;;;;;;;;21.12;46.77;101792.81;6131966;23;19916;-78
2022/05/26 03:09:41;;;;;;;;;;;;;;;21.10;46.79;101786.72;6132096;23;19991;-78
2022/05/26 03:12:19;;;;;;;;;;;;;;;21.11;46.83;101798.06;6158153;23;19915;-78
2022/05/26 03:14:44;;;;;;;;;;;;;;;21.11;46.81;101801.53;6131698;23;19915;-79
2022/05/26 03:17:10;;;;;;;;;;;;;;;21.09;46.83;101800.69;6131776;23;19995;-79
2022/05/26 03:19:35;;;;;;;;;;;;;;;21.09;46.85;101797.19;6131896;23;19923;-78
2022/05/26 03:22:00;;;;;;;;;;;;;;;21.09;46.86;101803.28;6107177;23;19912;-80
2022/05/26 03:24:25;;;;;;;;;;;;;;;21.09;46.69;101798.06;6131671;23;19925;-80
2022/05/26 03:26:50;;;;;;;;;;;;;;;21.09;46.63;101805.91;6157831;23;19960;-80
2022/05/26 03:29:16;;;;;;;;;;;;;;;21.09;46.84;101812.91;6131390;23;19912;-80
2022/05/26 03:31:41;;;;;;;;;;;;;;;21.09;46.79;101802.44;6107204;23;19920;-77
2022/05/26 03:42:18;;;;;;;;;;;;;;;21.09;46.89;101810.28;6158002;23;19920;-78
2022/05/26 03:44:44;;;;;;;;;;;;;;;21.09;46.80;101811.16;6131950;23;19913;-79
2022/05/26 03:47:09;;;;;;;;;;;;;;;21.08;46.89;101817.28;6131563;23;19914;-78
2022/05/26 03:49:35;;;;;;;;;;;;;;;21.08;46.82;101825.13;6157820;23;19909;-79
2022/05/26 03:52:00;;;;;;;;;;;;;;;21.09;46.76;101829.47;6131597;23;19944;-79
2022/05/26 03:54:25;;;;;;;;;;;;;;;21.08;46.86;101826.88;6156098;23;19912;-78
2022/05/26 03:56:51;;;;;;;;;;;;;;;21.07;46.92;101833.84;6131633;23;19916;-79
2022/05/26 03:59:16;;;;;;;;;;;;;;;21.08;46.85;101839.97;6157719;23;20335;-78
2022/05/26 04:01:41;;;;;;;;;;;;;;;21.07;46.85;101831.22;6106840;23;19912;-79
2022/05/26 04:04:07;;;;;;;;;;;;;;;21.08;46.90;101842.59;6157649;23;19916;-80
2022/05/26 04:06:32;;;;;;;;;;;;;;;21.09;46.81;101839.94;6157533;23;19913;-78
2022/05/26 04:08:58;;;;;;;;;;;;;;;21.11;46.62;101847.78;6132139;23;20225;-78
2022/05/26 04:11:24;;;;;;;;;;;;;;;21.11;46.73;101847.78;6157584;23;20233;-78
2022/05/26 04:13:50;;;;;;;;;;;;;;;21.12;46.67;101857.34;6131287;23;20344;-79
2022/05/26 04:16:16;;;;;;;;;;;;;;;21.13;46.70;101859.97;6131619;23;19920;-78
2022/05/26 04:18:41;;;;;;;;;;;;;;;21.15;46.53;101858.22;6107330;23;19912;-79
2022/05/26 04:21:07;;;;;;;;;;;;;;;21.15;46.59;101860.81;6106946;23;19936;-79
2022/05/26 04:23:33;;;;;;;;;;;;;;;21.16;46.69;101862.59;6131149;23;19947;-79
2022/05/26 04:25:58;;;;;;;;;;;;;;;21.17;46.64;101863.44;6131286;23;20317;-78
2022/05/26 04:28:23;;;;;;;;;;;;;;;21.17;46.45;101866.91;6131341;23;19916;-78
2022/05/26 04:30:49;;;;;;;;;;;;;;;21.19;46.49;101871.25;6131169;23;19930;-79
2022/05/26 04:33:14;;;;;;;;;;;;;;;21.18;46.64;101865.16;6157307;23;19913;-78
2022/05/26 04:35:39;;;;;;;;;;;;;;;21.21;46.54;101869.50;6131239;23;19922;-78
2022/05/26 04:38:04;;;;;;;;;;;;;;;21.19;46.54;101872.16;6106805;23;19912;-78
2022/05/26 04:40:30;;;;;;;;;;;;;;;21.20;46.39;101875.63;6106511;23;19913;-79
2022/05/26 04:42:55;;;;;;;;;;;;;;;21.20;46.47;101879.09;6131393;23;19912;-78
2022/05/26 04:45:20;;;;;;;;;;;;;;;21.21;46.54;101875.63;6158327;23;19912;-78
2022/05/26 04:47:45;;;;;;;;;;;;;;;21.23;46.52;101875.59;6131233;23;19964;-79
2022/05/26 04:50:11;;;;;;;;;;;;;;;21.25;46.34;101881.69;6131343;23;19992;-78
2022/05/26 04:52:36;;;;;;;;;;;;;;;21.31;46.48;101882.50;6106817;23;20003;-78
2022/05/26 04:55:02;;;;;;;;;;;;;;;21.43;46.16;101873.72;6131250;23;19909;-79
2022/05/26 04:57:27;;;;;;;;;;;;;;;21.46;46.37;101892.00;6156955;23;20229;-81
2022/05/26 04:59:52;;;;;;;;;;;;;;;;;;6106896;23;19965;-78
2022/05/26 05:02:19;;;;;;;;;;;;;;;21.45;46.58;101887.66;6157041;23;19987;-79
2022/05/26 05:04:48;;;;;;;;;;;;;;;21.43;46.58;101894.66;6130823;23;19909;-78
2022/05/26 05:07:14;;;;;;;;;;;;;;;21.44;46.55;101896.38;6131205;23;19919;-79
2022/05/26 05:09:39;;;;;;;;;;;;;;;21.46;46.42;101893.75;6106717;23;20285;-79
2022/05/26 05:12:05;;;;;;;;;;;;;;;21.46;46.58;101897.25;6156763;23;19913;-78
2022/05/26 05:14:34;;;;;;;;;;;;;;;21.47;46.50;101904.25;6130772;23;19920;-78
2022/05/26 05:16:59;;;;;;;;;;;;;;;21.59;46.37;101910.25;6130750;23;19919;-78
2022/05/26 05:19:24;;;;;;;;;;;;;;;21.74;46.15;101908.34;6106243;23;19913;-79
2022/05/26 05:22:05;;;;;;;;;;;;;;;21.84;46.10;101909.13;6156805;23;19912;-78
2022/05/26 05:24:42;;;;;;;;;;;;;;;21.79;46.15;101921.38;6156660;23;19984;-78
2022/05/26 05:27:14;;;;;;;;;;;;;;;21.86;46.12;101928.31;6155257;23;20237;-78
2022/05/26 05:29:40;;;;;;;;;;;;;;;21.90;46.24;101922.13;6130720;23;20268;-79
2022/05/26 05:32:26;;;;;;;;;;;;;;;21.88;46.25;101929.13;6155136;23;19943;-78
2022/05/26 05:34:54;;;;;;;;;;;;;;;21.86;46.23;101930.03;6130993;23;20310;-78
2022/05/26 05:37:19;;;;;;;;;;;;;;;21.90;46.05;101943.09;6130490;23;20312;-78
2022/05/26 05:39:44;;;;;;;;;;;;;;;21.97;46.05;101933.41;6106264;23;19912;-79
2022/05/26 05:42:10;;;;;;;;;;;;;;;22.10;45.96;101931.53;6156553;23;19912;-78
2022/05/26 05:44:36;;;;;;;;;;;;;;;22.10;45.88;101936.78;6130953;23;19917;-76
2022/05/26 05:47:02;;;;;;;;;;;;;;;22.23;45.52;101930.53;6130502;23;19913;-76
2022/05/26 05:49:29;;;;;;;;;;;;;;;22.47;44.92;101934.66;6130412;23;20041;-77
2022/05/26 05:51:55;;;;;;;;;;;;;;;22.75;44.63;101934.25;6130977;23;19908;-77
2022/05/26 05:54:20;;;;;;;;;;;;;;;23.14;43.35;101937.22;6158720;23;19909;-80
2022/05/26 05:56:46;;;;;;;;;;;;;;;23.45;42.87;101941.97;6158770;23;20006;-79
2022/05/26 05:59:11;;;;;;;;;;;;;;;23.78;41.81;101940.59;6132525;23;19913;-77
2022/05/26 06:01:37;;;;;;;;;;;;;;;24.02;41.49;101932.22;6158648;23;19913;-77
2022/05/26 06:04:02;;;;;;;;;;;;;;;24.21;41.10;101945.88;6132714;23;19967;-80
2022/05/26 06:06:27;;;;;;;;;;;;;;;24.38;40.84;101945.53;6108128;23;19920;-80
2022/05/26 06:08:52;;;;;;;;;;;;;;;24.57;40.48;101950.44;6158850;23;19912;-78
2022/05/26 06:11:18;;;;;;;;;;;;;;;24.64;40.11;101946.78;6132587;23;19909;-78
2022/05/26 06:13:44;;;;;;;;;;;;;;;24.81;39.93;101947.25;6132670;23;19908;-78
2022/05/26 06:16:13;;;;;;;;;;;;;;;24.90;39.41;101954.09;6132983;23;19916;-78
2022/05/26 06:18:38;;;;;;;;;;;;;;;24.39;40.67;101963.06;6133170;23;19939;-77
2022/05/26 06:21:05;;;;;;;;;;;;;;;24.34;40.88;101961.41;6158534;23;20223;-77
2022/05/26 06:23:31;;;;;;;;;;;;;;;23.70;42.25;101966.09;6132302;23;20240;-77
2022/05/26 06:25:56;;;;;;;;;;;;;;;23.17;43.42;101971.34;6158639;23;19912;-77
2022/05/26 06:31:07;;;;;;;;;;;;;;;23.35;43.04;101975.44;6158475;23;19919;-76
2022/05/26 06:39:00;;;;;;;;;;;;;;;22.63;44.00;101981.66;6136048;23;19979;-77
2022/05/26 06:44:09;;;;;;;;;;;;;;;23.99;40.95;101984.00;6158226;23;19959;-76
2022/05/26 06:46:34;;;;;;;;;;;;;;;23.42;42.23;101990.19;6132050;23;19909;-76
2022/05/26 06:49:00;;;;;;;;;;;;;;;23.05;42.92;101997.75;6107868;23;20314;-79
2022/05/26 06:51:28;;;;;;;;;;;;;;;23.86;41.14;101993.84;6132271;23;20248;-78
2022/05/26 06:53:54;;;;;;;;;;;;;;;24.22;40.20;102000.22;6158432;23;19940;-77
2022/05/26 06:56:19;;;;;;;;;;;;;;;24.33;39.77;102001.78;6107653;23;19917;-77
2022/05/26 06:58:44;;;;;;;;;;;;;;;24.25;39.69;102009.81;6108074;23;19964;-81
2022/05/26 07:01:10;;;;;;;;;;;;;;;24.17;39.58;102003.81;6107811;23;19963;-83
2022/05/26 07:03:35;;;;;;;;;;;;;;;23.22;41.71;102011.50;6131920;23;19947;-82
2022/05/26 07:06:00;;;;;;;;;;;;;;;22.47;43.15;102015.06;6132009;23;20322;-75
2022/05/26 07:08:26;;;;;;;;;;;;;;;22.15;43.68;102018.88;6158251;23;19909;-75
2022/05/26 07:10:52;;;;;;;;;;;;;;;22.06;44.12;102024.19;6107613;23;19951;-75
2022/05/26 07:13:18;;;;;;;;;;;;;;;22.02;44.14;102026.00;6107620;23;19961;-75
2022/05/26 07:15:43;;;;;;;;;;;;;;;21.96;44.26;102024.28;6131784;23;19908;-76
2022/05/26 07:18:08;;;;;;;;;;;;;;;21.98;44.23;102035.63;6131964;23;20332;-75
2022/05/26 07:20:36;;;;;;;;;;;;;;;21.92;44.43;102026.97;6131776;23;19919;-75
2022/05/26 07:23:02;;;;;;;;;;;;;;;21.92;44.37;102026.97;6132493;23;20243;-75
2022/05/26 07:25:27;;;;;;;;;;;;;;;21.87;44.36;102026.13;6131363;23;19921;-75
2022/05/26 07:27:52;;;;;;;;;;;;;;;21.92;44.52;102027.81;6107396;23;19912;-76
2022/05/26 07:30:17;;;;;;;;;;;;;;;21.97;44.55;102026.03;6131644;23;20245;-75
2022/05/26 07:32:43;;;;;;;;;;;;;;;21.98;44.52;102035.63;6158102;23;19912;-77
2022/05/26 07:35:08;;;;;;;;;;;;;;;21.94;44.57;102035.69;6131793;23;19913;-77
2022/05/26 07:43:03;;;;;;;;;;;;;;;21.85;44.40;102043.63;6157803;23;19920;-76
2022/05/26 07:45:31;;;;;;;;;;;;;;;21.87;44.36;102047.09;6131960;23;19916;-76
2022/05/26 07:47:57;;;;;;;;;;;;;;;21.89;44.17;102046.19;6131996;23;19919;-76
2022/05/26 07:50:22;;;;;;;;;;;;;;;21.92;44.28;102054.03;6131912;23;19943;-76
2022/05/26 07:52:51;;;;;;;;;;;;;;;21.96;44.33;102054.88;6131600;23;19943;-77
2022/05/26 07:55:18;;;;;;;;;;;;;;;21.91;44.25;102052.31;6157606;23;19947;-75
2022/05/26 07:57:43;;;;;;;;;;;;;;;21.94;44.25;102041.78;6157762;23;19913;-76
2022/05/26 08:00:09;;;;;;;;;;;;;;;21.96;44.21;102054.88;6107117;23;20241;-76
2022/05/26 08:02:35;;;;;;;;;;;;;;;21.97;44.11;102051.34;6131377;23;19963;-76
2022/05/26 08:05:00;;;;;;;;;;;;;;;21.94;44.10;102052.25;6131862;23;19917;-76
2022/05/26 08:07:25;;;;;;;;;;;;;;;21.92;43.97;102053.16;6157874;23;19912;-76
2022/05/26 08:09:50;;;;;;;;;;;;;;;21.98;44.09;102055.72;6107250;23;19913;-77
2022/05/26 08:12:16;;;;;;;;;;;;;;;22.03;44.11;102059.19;6157684;23;19909;-76
2022/05/26 08:14:42;;;;;;;;;;;;;;;21.97;44.01;102070.59;6157611;23;19916;-76
2022/05/26 08:17:08;;;;;;;;;;;;;;;21.98;43.89;102076.69;6157212;23;19913;-76
2022/05/26 08:19:33;;;;;;;;;;;;;;;21.88;43.96;102081.13;6131226;23;19909;-76
2022/05/26 08:21:59;;;;;;;;;;;;;;;21.83;43.95;102074.22;6131103;23;19915;-76
2022/05/26 08:24:24;;;;;;;;;;;;;;;21.91;43.85;102072.41;6130981;23;19987;-75
2022/05/26 08:26:50;;;;;;;;;;;;;;;21.91;44.06;102078.50;6157444;23;19920;-76
2022/05/26 08:29:16;;;;;;;;;;;;;;;21.88;43.88;102073.28;6157385;23;20359;-77
2022/05/26 08:31:41;;;;;;;;;;;;;;;21.89;44.42;102080.28;6106850;23;19912;-76
2022/05/26 08:34:07;;;;;;;;;;;;;;;21.89;44.23;102082.88;6157445;23;20236;-76
2022/05/26 08:36:33;;;;;;;;;;;;;;;21.88;44.25;102094.25;6106492;23;20329;-75
2022/05/26 08:38:59;;;;;;;;;;;;;;;21.89;44.06;102095.13;6131139;23;19908;-75
2022/05/26 08:41:27;;;;;;;;;;;;;;;21.93;44.35;102097.72;6131428;23;20325;-76
2022/05/26 08:43:52;;;;;;;;;;;;;;;21.96;44.15;102097.69;6131073;23;20249;-78
2022/05/26 08:46:19;;;;;;;;;;;;;;;22.01;44.06;102115.13;6131212;23;19908;-77
2022/05/26 08:48:44;;;;;;;;;;;;;;;21.97;43.98;102109.03;6131803;23;19912;-78
2022/05/26 08:51:11;;;;;;;;;;;;;;;21.94;44.00;102104.69;6131009;23;19980;-79
2022/05/26 08:53:37;;;;;;;;;;;;;;;21.96;44.08;102112.53;6157119;23;20318;-79
2022/05/26 08:56:03;;;;;;;;;;;;;;;21.97;44.12;102117.78;6130693;23;19990;-78
2022/05/26 08:58:58;;;;;;;;;;;;;;;21.98;43.96;102119.50;6157011;23;19909;-78
2022/05/26 09:01:27;;;;;;;;;;;;;;;21.98;44.17;102116.03;6112434;23;19991;-77
2022/05/26 09:03:53;;;;;;;;;;;;;;;21.98;44.27;102118.63;6157220;23;19979;-77
2022/05/26 09:06:19;;;;;;;;;;;;;;;21.97;44.27;102124.75;6130793;23;20325;-78
2022/05/26 09:14:34;;;;;;;;;;;;;;;21.96;44.48;102118.66;6159869;23;19913;-78
2022/05/26 09:17:04;;;;;;;;;;;;;;;21.94;44.60;102130.88;6130092;23;19948;-78
2022/05/26 09:19:48;;;;;;;;;;;;;;;21.94;44.63;102135.25;6156823;23;19916;-79
2022/05/26 09:22:32;;;;;;;;;;;;;;;21.92;44.58;102134.41;6157104;23;19983;-80
2022/05/26 09:24:58;;;;;;;;;;;;;;;21.91;44.70;102141.41;6130991;23;19923;-79
2022/05/26 09:27:28;;;;;;;;;;;;;;;21.88;44.60;102144.03;6130978;23;19908;-79
2022/05/26 09:29:54;;;;;;;;;;;;;;;21.87;44.70;102165.03;6130778;23;20322;-79
2022/05/26 09:32:28;;;;;;;;;;;;;;;21.87;44.77;102163.28;6106405;23;19986;-79
2022/05/26 09:35:05;;;;;;;;;;;;;;;21.85;44.88;102154.53;6131064;23;19916;-79
2022/05/26 09:37:38;;;;;;;;;;;;;;;21.82;44.90;102143.19;6156983;23;19967;-79
2022/05/26 09:40:16;;;;;;;;;;;;;;;21.84;44.97;102150.19;6131397;23;19999;-78
2022/05/26 09:42:42;;;;;;;;;;;;;;;21.85;44.86;102158.94;6156984;23;19913;-79
2022/05/26 09:45:13;;;;;;;;;;;;;;;21.84;44.97;102147.59;6130733;23;20297;-78
2022/05/26 09:47:44;;;;;;;;;;;;;;;21.84;44.91;102134.47;6131130;23;19951;-79
2022/05/26 09:50:14;;;;;;;;;;;;;;;21.83;45.15;102127.47;6130641;23;19909;-79
2022/05/26 09:52:44;;;;;;;;;;;;;;;21.84;44.95;102146.69;6156815;23;19987;-79
2022/05/26 09:55:16;;;;;;;;;;;;;;;21.85;44.99;102158.94;6155315;23;19908;-79
2022/05/26 09:57:41;;;;;;;;;;;;;;;21.84;45.20;102160.69;6156861;23;19951;-79
2022/05/26 10:00:14;;;;;;;;;;;;;;;21.83;45.30;102160.69;6107736;23;19935;-80
2022/05/26 10:02:40;;;;;;;;;;;;;;;21.84;45.13;102160.69;6157144;23;20241;-80
2022/05/26 10:05:22;;;;;;;;;;;;;;;21.83;45.34;102161.53;6157325;23;19987;-81
2022/05/26 10:07:57;;;;;;;;;;;;;;;21.84;45.36;102165.03;6157139;23;19908;-80
2022/05/26 10:10:26;;;;;;;;;;;;;;;21.84;45.33;102165.03;6130909;23;19908;-79
2022/05/26 10:13:07;;;;;;;;;;;;;;;21.85;45.22;102166.78;6130964;23;20277;-79
2022/05/26 10:15:35;;;;;;;;;;;;;;;21.85;45.36;102164.16;6130896;23;19940;-79
2022/05/26 10:18:18;;;;;;;;;;;;;;;21.84;45.32;102162.41;6156931;23;19913;-78
2022/05/26 10:20:48;;;;;;;;;;;;;;;21.85;45.17;102174.66;6130863;23;19947;-80
2022/05/26 10:23:23;;;;;;;;;;;;;;;21.84;45.22;102165.94;6156630;23;19916;-80
2022/05/26 10:25:51;;;;;;;;;;;;;;;21.84;45.35;102157.16;6130489;23;20364;-80
2022/05/26 10:28:31;;;;;;;;;;;;;;;21.83;45.45;102161.53;6130448;23;19913;-80
2022/05/26 10:30:59;;;;;;;;;;;;;;;21.82;45.29;102158.94;6130322;23;20233;-79
2022/05/26 10:33:44;;;;;;;;;;;;;;;21.83;45.21;102153.69;6130393;23;19964;-79
2022/05/26 10:36:28;;;;;;;;;;;;;;;21.85;45.28;102161.53;6130406;23;19913;-79
2022/05/26 10:38:59;;;;;;;;;;;;;;;21.85;45.22;102161.53;6130910;23;19909;-80
2022/05/26 10:41:24;;;;;;;;;;;;;;;21.85;45.12;102161.53;6158790;23;19944;-80
2022/05/26 10:43:55;;;;;;;;;;;;;;;21.85;45.33;102164.16;6132107;23;20629;-80
2022/05/26 10:46:23;;;;;;;;;;;;;;;21.85;45.25;102157.16;6132312;23;19955;-78
2022/05/26 10:48:52;;;;;;;;;;;;;;;21.85;45.26;102156.31;6158417;23;19908;-80
2022/05/26 10:51:31;;;;;;;;;;;;;;;21.84;45.43;102158.06;6158382;23;20341;-79
2022/05/26 10:54:03;;;;;;;;;;;;;;;21.85;45.32;102157.16;6132225;23;20292;-80
2022/05/26 10:56:36;;;;;;;;;;;;;;;21.85;45.27;102162.41;6132046;23;19991;-80
2022/05/26 10:59:17;;;;;;;;;;;;;;;21.86;45.34;102158.94;6132089;23;19909;-80
2022/05/26 11:01:45;;;;;;;;;;;;;;;21.86;45.55;102161.53;6132592;23;20278;-79
2022/05/26 11:04:19;;;;;;;;;;;;;;;21.86;45.54;102163.28;6132072;23;19908;-80
2022/05/26 11:06:46;;;;;;;;;;;;;;;21.88;45.47;102161.50;6132188;23;20309;-79
2022/05/26 11:09:26;;;;;;;;;;;;;;;21.88;45.38;102166.75;6107997;23;19924;-79
2022/05/26 11:11:56;;;;;;;;;;;;;;;21.88;45.38;102164.13;6158351;23;19909;-79
2022/05/26 11:17:33;;;;;;;;;;;;;;;21.88;45.44;102158.88;6127752;23;19983;-80
2022/05/26 11:20:03;;;;;;;;;;;;;;;21.90;45.51;102160.63;6131801;23;19975;-80
2022/05/26 11:22:28;;;;;;;;;;;;;;;21.90;45.33;102160.63;6132483;23;19916;-80
2022/05/26 11:24:56;;;;;;;;;;;;;;;21.89;45.61;102161.50;6131788;23;19917;-80
2022/05/26 11:27:25;;;;;;;;;;;;;;;21.91;45.59;102159.75;6157870;23;20353;-80
2022/05/26 11:29:54;;;;;;;;;;;;;;;21.91;45.50;102164.13;6131514;23;19936;-80
2022/05/26 11:38:05;;;;;;;;;;;;;;;21.91;45.64;102172.84;6158254;23;20355;-80
2022/05/26 11:40:33;;;;;;;;;;;;;;;21.92;45.59;102169.34;6132141;23;19909;-80
2022/05/26 11:42:59;;;;;;;;;;;;;;;21.93;45.45;102167.63;6158318;23;19908;-79
2022/05/26 11:45:29;;;;;;;;;;;;;;;21.92;45.56;102165.84;6158019;23;19909;-80
2022/05/26 11:47:59;;;;;;;;;;;;;;;21.93;45.52;102173.72;6132507;23;20364;-80
2022/05/26 11:50:28;;;;;;;;;;;;;;;21.93;45.42;102160.63;6131081;23;19909;-80
2022/05/26 11:52:53;;;;;;;;;;;;;;;21.94;45.54;102166.72;6157888;23;19916;-80
2022/05/26 11:55:37;;;;;;;;;;;;;;;21.94;45.65;102159.72;6158025;23;20233;-80
2022/05/26 11:58:14;;;;;;;;;;;;;;;21.94;45.56;102171.97;6131542;23;19987;-81
2022/05/26 12:00:43;;;;;;;;;;;;;;;21.95;45.61;102171.97;6131660;23;19987;-80
2022/05/26 12:03:20;;;;;;;;;;;;;;;21.95;45.56;102177.19;6157660;23;19913;-81
2022/05/26 12:05:47;;;;;;;;;;;;;;;21.95;45.62;102164.09;6131733;23;20376;-80
2022/05/26 12:08:24;;;;;;;;;;;;;;;21.96;45.47;102173.69;6131631;23;19913;-80
2022/05/26 12:10:54;;;;;;;;;;;;;;;21.96;45.56;102178.94;6131445;23;19916;-79
2022/05/26 12:13:19;;;;;;;;;;;;;;;21.97;45.65;102177.16;6131577;23;19916;-80
2022/05/26 12:16:03;;;;;;;;;;;;;;;21.96;45.57;102175.44;6157741;23;19909;-80
2022/05/26 12:18:36;;;;;;;;;;;;;;;21.96;45.64;102172.81;6131684;23;19920;-80
2022/05/26 12:21:12;;;;;;;;;;;;;;;21.96;45.60;102173.69;6157539;23;19916;-80
2022/05/26 12:23:38;;;;;;;;;;;;;;;21.97;45.65;102164.97;6157198;23;20036;-80
2022/05/26 12:26:22;;;;;;;;;;;;;;;21.97;45.49;102164.06;6107119;23;20237;-80
2022/05/26 12:28:47;;;;;;;;;;;;;;;21.97;45.74;102164.97;6131336;23;20388;-80
2022/05/26 12:31:12;;;;;;;;;;;;;;;21.98;45.76;102171.06;6131543;23;19912;-77
2022/05/26 12:33:49;;;;;;;;;;;;;;;21.99;45.63;102164.94;6157623;23;20013;-78
2022/05/26 12:36:18;;;;;;;;;;;;;;;21.98;45.75;102166.69;6155678;23;19912;-78
2022/05/26 12:39:02;;;;;;;;;;;;;;;22.00;45.66;102163.19;6131916;23;19909;-78
2022/05/26 12:41:27;;;;;;;;;;;;;;;22.00;45.61;102169.31;6131245;23;19959;-78
2022/05/26 12:44:07;;;;;;;;;;;;;;;22.01;45.77;102164.91;6131166;23;19995;-79
2022/05/26 12:46:32;;;;;;;;;;;;;;;22.02;45.79;102159.69;6131069;23;19915;-78
2022/05/26 12:49:04;;;;;;;;;;;;;;;22.01;45.52;102163.16;6131070;23;19909;-79
2022/05/26 12:51:33;;;;;;;;;;;;;;;22.02;45.53;102171.91;6130875;23;19908;-78
2022/05/26 12:54:00;;;;;;;;;;;;;;;22.01;45.74;102157.06;6131203;23;19959;-79
2022/05/26 12:56:33;;;;;;;;;;;;;;;22.01;45.83;102147.44;6157104;23;19913;-78
2022/05/26 12:58:59;;;;;;;;;;;;;;;22.01;45.74;102146.56;6157121;23;20325;-78
2022/05/26 13:01:25;;;;;;;;;;;;;;;22.01;45.89;102151.81;6130943;23;19909;-78
2022/05/26 13:04:09;;;;;;;;;;;;;;;22.02;45.75;102149.19;6157226;23;19937;-78
2022/05/26 13:06:43;;;;;;;;;;;;;;;22.02;45.55;102137.84;6157079;23;20325;-79
2022/05/26 13:09:18;;;;;;;;;;;;;;;22.02;45.83;102141.31;6130956;23;20219;-79
2022/05/26 13:11:55;;;;;;;;;;;;;;;22.03;45.72;102136.94;6157326;23;19909;-81
2022/05/26 13:14:49;;;;;;;;;;;;;;;22.02;45.82;102138.72;6108423;23;19913;-81
2022/05/26 13:17:16;;;;;;;;;;;;;;;22.02;45.51;102141.31;6112205;23;19987;-80
2022/05/26 13:19:46;;;;;;;;;;;;;;;22.03;45.50;102132.56;6130861;23;20277;-80
2022/05/26 13:22:31;;;;;;;;;;;;;;;22.03;45.68;102134.31;6130888;23;19915;-80
2022/05/26 13:25:00;;;;;;;;;;;;;;;22.03;45.79;102137.81;6130099;23;19924;-79
2022/05/26 13:27:26;;;;;;;;;;;;;;;22.03;45.64;102136.94;6157171;23;19909;-79
2022/05/26 13:29:52;;;;;;;;;;;;;;;22.02;45.86;102120.34;6157093;23;19909;-79